Time;durP1;ratioP1;P1;durP2;ratioP2;P2;SDS_P1;SDS_P2;PMS_P1;PMS_P2;Temp;Humidity;BMP_temperature;BMP_pressure;BME280_temperature;BME280_humidity;BME280_pressure;Samples;Min_cycle;Max_cycle;Signal;HPM_P1;HPM_P2
2023/07/12 00:01:12;;;;;;;8.48;8.27;;;;;;;-141.02;100.00;71348.81;5134047;27;20299;-60
2023/07/12 00:03:40;;;;;;;8.10;7.90;;;;;;;-141.02;100.00;72092.31;5133962;27;20224;-57
2023/07/12 00:06:12;;;;;;;8.10;7.90;;;;;;;-141.02;100.00;72835.97;5133634;27;20717;-56
2023/07/12 00:08:40;;;;;;;7.82;7.63;;;;;;;-141.02;100.00;73579.75;5133694;27;20195;-56
2023/07/12 00:11:15;;;;;;;7.85;7.65;;;;;;;-141.02;100.00;74075.72;5133555;27;20238;-60
2023/07/12 00:13:42;;;;;;;8.10;7.90;;;;;;;-141.02;100.00;74075.72;5133566;27;20597;-56
2023/07/12 00:16:20;;;;;;;8.60;8.40;;;;;;;-141.02;100.00;73579.75;5133555;27;20193;-66
2023/07/12 00:18:47;;;;;;;8.25;8.05;;;;;;;-141.02;100.00;73331.81;5133500;27;20565;-60
2023/07/12 00:21:14;;;;;;;8.30;8.10;;;;;;;-141.02;100.00;73579.75;5134015;27;20196;-66
2023/07/12 00:23:41;;;;;;;8.38;8.18;;;;;;;-141.02;100.00;74075.72;5133979;27;20192;-63
2023/07/12 00:26:20;;;;;;;7.93;7.72;;;;;;;-141.02;100.00;74323.72;5133320;27;20649;-63
2023/07/12 00:28:47;;;;;;;8.40;8.20;;;;;;;-141.02;100.00;74571.75;5133862;27;20192;-60
2023/07/12 00:31:16;;;;;;;7.60;7.40;;;;;;;-141.02;100.00;75315.94;5133302;27;20199;-66
2023/07/12 00:33:43;;;;;;;7.40;7.20;;;;;;;-141.02;100.00;76060.28;5133186;27;20283;-63
2023/07/12 00:36:15;;;;;;;7.80;7.60;;;;;;;-141.02;100.00;76060.28;5133210;27;20238;-64
2023/07/12 00:38:42;;;;;;;8.10;7.90;;;;;;;-141.02;100.00;76308.44;5133496;27;20219;-58
2023/07/12 00:41:19;;;;;;;8.38;8.18;;;;;;;-141.02;100.00;76060.28;5133438;27;20284;-60
2023/07/12 00:43:49;;;;;;;8.40;8.20;;;;;;;-141.02;100.00;75812.16;5133126;27;20184;-65
2023/07/12 00:46:24;;;;;;;8.50;8.30;;;;;;;-141.02;100.00;76308.44;5132954;27;20706;-59
2023/07/12 00:48:51;;;;;;;7.70;7.50;;;;;;;-141.02;100.00;76804.81;5132651;27;20227;-59
2023/07/12 00:51:39;;;;;;;7.60;7.40;;;;;;;-141.02;100.00;77053.00;5132988;27;20198;-57
2023/07/12 00:54:11;;;;;;;7.68;7.47;;;;;;;-141.02;100.00;77549.47;5133282;27;20185;-56
2023/07/12 00:56:38;;;;;;;8.10;7.90;;;;;;;-141.02;100.00;77797.72;5133276;27;20677;-61
2023/07/12 00:59:09;;;;;;;7.80;7.60;;;;;;;-141.02;100.00;77797.72;5133201;27;20192;-57
2023/07/12 01:01:38;;;;;;;8.10;7.90;;;;;;;-141.02;100.00;77797.72;5133272;27;20224;-64
2023/07/12 01:04:07;;;;;;;8.30;8.10;;;;;;;-141.02;100.00;77053.00;5133224;27;20604;-56
2023/07/12 01:06:34;;;;;;;8.88;8.68;;;;;;;-141.02;100.00;75564.03;5133142;27;20228;-63
2023/07/12 01:09:08;;;;;;;9.70;9.40;;;;;;;-141.02;100.00;75564.03;5133110;27;20276;-59
2023/07/12 01:11:35;;;;;;;8.80;8.60;;;;;;;-141.02;100.00;75812.16;5132892;27;20258;-63
2023/07/12 01:14:02;;;;;;;8.70;8.50;;;;;;;-141.02;100.00;76556.59;5132772;27;20192;-57
2023/07/12 01:16:30;;;;;;;8.40;8.20;;;;;;;-141.02;100.00;77053.00;5132733;27;20291;-61
2023/07/12 01:18:58;;;;;;;8.35;8.15;;;;;;;-141.02;100.00;77797.72;5132739;27;20633;-62
2023/07/12 01:21:31;;;;;;;8.05;7.85;;;;;;;-141.02;100.00;78046.00;5132975;27;20275;-58
2023/07/12 01:23:58;;;;;;;7.30;7.10;;;;;;;-141.02;100.00;78790.94;5133091;27;20189;-60
2023/07/12 01:26:30;;;;;;;7.35;7.15;;;;;;;-141.02;100.00;79039.28;5132975;27;20263;-65
2023/07/12 01:29:00;;;;;;;7.40;7.20;;;;;;;-141.02;100.00;79536.03;5132653;27;20195;-59
2023/07/12 01:31:28;;;;;;;7.20;7.00;;;;;;;-141.02;100.00;79784.44;5132984;27;20271;-65
2023/07/12 01:33:55;;;;;;;7.20;7.00;;;;;;;-141.02;100.00;80281.31;5132857;27;20220;-63
2023/07/12 01:36:23;;;;;;;6.90;6.70;;;;;;;-141.02;100.00;80529.75;5132869;27;20188;-56
2023/07/12 01:38:55;;;;;;;8.00;7.80;;;;;;;-141.02;100.00;81275.25;5132772;27;20203;-60
2023/07/12 01:41:23;;;;;;;6.38;6.28;;;;;;;-141.02;100.00;82020.88;5132915;27;20277;-66
2023/07/12 01:43:50;;;;;;;6.78;6.57;;;;;;;-141.02;100.00;82518.06;5132715;27;20196;-65
2023/07/12 01:46:17;;;;;;;6.72;6.53;;;;;;;-141.02;100.00;83015.31;5132410;27;20260;-61
2023/07/12 01:48:44;;;;;;;6.10;6.00;;;;;;;-141.02;100.00;84010.03;5132807;27;20196;-66
2023/07/12 01:51:12;;;;;;;5.90;5.80;;;;;;;-141.02;100.00;84756.25;5132682;27;20572;-60
2023/07/12 01:53:40;;;;;;;6.00;5.90;;;;;;;-141.02;100.00;85253.84;5132452;27;20658;-58
2023/07/12 01:56:10;;;;;;;6.10;6.00;;;;;;;-141.02;100.00;86000.34;5132692;27;20193;-58
2023/07/12 01:58:37;;;;;;;5.97;5.88;;;;;;;-141.02;100.00;86747.00;5133550;27;20235;-58
2023/07/12 02:01:04;;;;;;;5.80;5.70;;;;;;;-141.02;100.00;87244.88;5136131;27;20193;-57
2023/07/12 02:03:30;;;;;;;5.70;5.60;;;;;;;-141.02;100.00;87742.81;5136091;27;20651;-59
2023/07/12 02:05:58;;;;;;;5.50;5.40;;;;;;;-141.02;100.00;87742.81;5135978;27;20608;-57
2023/07/12 02:08:25;;;;;;;5.60;5.50;;;;;;;-141.02;100.00;88240.81;5136305;27;20196;-57
2023/07/12 02:10:52;;;;;;;5.60;5.50;;;;;;;-141.02;100.00;88489.84;5135778;27;20651;-60
2023/07/12 02:13:22;;;;;;;5.95;5.85;;;;;;;-141.02;100.00;87991.81;5136106;27;20189;-63
2023/07/12 02:15:49;;;;;;;6.10;6.00;;;;;;;-141.02;100.00;87742.81;5135933;27;20238;-57
2023/07/12 02:18:17;;;;;;;6.10;6.00;;;;;;;-141.02;100.00;87742.81;5135895;27;20558;-59
2023/07/12 02:20:44;;;;;;;6.70;6.50;;;;;;;-141.02;100.00;87493.84;5135833;27;20279;-61
2023/07/12 02:23:11;;;;;;;6.30;6.20;;;;;;;-141.02;100.00;87493.84;5136337;27;20200;-57
2023/07/12 02:25:38;;;;;;;6.88;6.68;;;;;;;-141.02;100.00;87742.81;5135643;27;20224;-57
2023/07/12 02:28:05;;;;;;;6.20;6.10;;;;;;;-141.02;100.00;87991.81;5136208;27;20283;-57
2023/07/12 02:30:34;;;;;;;5.80;5.70;;;;;;;-141.02;100.00;88489.84;5135925;27;20195;-57
2023/07/12 02:33:01;;;;;;;5.70;5.60;;;;;;;-141.02;100.00;89237.03;5135829;27;20230;-59
2023/07/12 02:35:31;;;;;;;5.32;5.22;;;;;;;-141.02;100.00;89984.41;5135557;27;20212;-59
2023/07/12 02:38:00;;;;;;;5.65;5.55;;;;;;;-141.02;100.00;90482.72;5135449;27;20192;-62
2023/07/12 02:40:28;;;;;;;5.60;5.50;;;;;;;-141.02;100.00;90482.72;5135403;27;20193;-58
2023/07/12 02:42:55;;;;;;;5.40;5.30;;;;;;;-141.02;100.00;90981.13;5135294;27;20682;-60
2023/07/12 02:45:23;;;;;;;5.60;5.50;;;;;;;-141.02;100.00;91728.88;5135592;27;20280;-64
2023/07/12 02:47:52;;;;;;;5.80;5.70;;;;;;;-141.02;100.00;92476.78;5135565;27;20655;-58
2023/07/12 02:50:19;;;;;;;5.32;5.22;;;;;;;-141.02;100.00;92975.47;5135537;27;20189;-59
2023/07/12 02:52:46;;;;;;;5.15;5.05;;;;;;;-141.02;100.00;93723.63;5135443;27;20192;-63
2023/07/12 02:55:13;;;;;;;4.80;4.70;;;;;;;-141.02;100.00;94222.50;5135578;27;20271;-59
2023/07/12 02:57:40;;;;;;;5.00;4.90;;;;;;;-141.02;100.00;94721.44;5135413;27;20196;-58
2023/07/12 03:00:08;;;;;;;5.25;5.15;;;;;;;-141.02;100.00;95220.47;5135336;27;20271;-62
2023/07/12 03:02:35;;;;;;;5.05;4.95;;;;;;;-141.02;100.00;94970.94;5135033;27;20193;-60
2023/07/12 03:05:04;;;;;;;5.10;5.00;;;;;;;-141.02;100.00;95470.00;5135249;27;20279;-57
2023/07/12 03:07:31;;;;;;;5.10;5.00;;;;;;;-141.02;100.00;95969.13;5134805;27;20234;-61
2023/07/12 03:09:58;;;;;;;5.00;4.90;;;;;;;-141.02;100.00;96218.69;5134140;27;20574;-61
2023/07/12 03:12:24;;;;;;;5.13;5.03;;;;;;;-141.02;100.00;96717.94;5134683;27;20239;-63
2023/07/12 03:14:52;;;;;;;5.65;5.55;;;;;;;-141.02;100.00;96717.94;5134900;27;20200;-60
2023/07/12 03:17:19;;;;;;;5.70;5.60;;;;;;;-141.02;100.00;96468.31;5135126;27;20192;-63
2023/07/12 03:19:46;;;;;;;5.82;5.72;;;;;;;-141.02;100.00;95969.13;5134668;27;20684;-64
2023/07/12 03:22:14;;;;;;;6.55;6.38;;;;;;;-141.02;100.00;95470.00;5134735;27;20287;-57
2023/07/12 03:24:41;;;;;;;6.78;6.57;;;;;;;-141.02;100.00;94970.94;5134511;27;20666;-59
2023/07/12 03:27:08;;;;;;;7.13;6.93;;;;;;;-141.02;100.00;95220.47;5134805;27;20307;-60
2023/07/12 03:29:35;;;;;;;6.90;6.70;;;;;;;-141.02;100.00;95220.47;5134680;27;20682;-57
2023/07/12 03:32:02;;;;;;;6.68;6.47;;;;;;;-141.02;100.00;95969.13;5134788;27;20662;-60
2023/07/12 03:34:31;;;;;;;6.30;6.20;;;;;;;-141.02;100.00;96218.69;5134410;27;20197;-57
2023/07/12 03:37:00;;;;;;;6.22;6.13;;;;;;;-141.02;100.00;96218.69;5134649;27;20197;-58
2023/07/12 03:39:29;;;;;;;6.43;6.30;;;;;;;-141.02;100.00;96218.69;5134232;27;20546;-58
2023/07/12 03:41:55;;;;;;;6.32;6.22;;;;;;;-141.02;100.00;96468.31;5134202;27;20737;-58
2023/07/12 03:44:23;;;;;;;6.20;6.10;;;;;;;-141.02;100.00;97466.91;5134478;27;20199;-57
2023/07/12 03:46:50;;;;;;;6.20;6.10;;;;;;;-141.02;100.00;97716.59;5134288;27;20578;-58
2023/07/12 03:49:17;;;;;;;6.88;6.68;;;;;;;-141.02;100.00;96468.31;5134389;27;20192;-59
2023/07/12 03:51:44;;;;;;;9.45;9.15;;;;;;;-141.02;100.00;94970.94;5134049;27;20732;-58
2023/07/12 03:54:11;;;;;;;9.73;9.43;;;;;;;-141.02;100.00;92975.47;5134220;27;20189;-59
2023/07/12 03:56:39;;;;;;;10.52;10.23;;;;;;;-141.02;100.00;91230.38;5134297;27;20196;-57
2023/07/12 03:59:08;;;;;;;11.10;10.80;;;;;;;-141.02;100.00;89486.16;5134094;27;20235;-57
2023/07/12 04:01:35;;;;;;;11.90;11.50;;;;;;;-141.02;100.00;87991.81;5134130;27;20196;-58
2023/07/12 04:04:02;;;;;;;12.65;12.25;;;;;;;-141.02;100.00;86747.00;5134132;27;20276;-61
2023/07/12 04:06:29;;;;;;;12.73;12.32;;;;;;;-141.02;100.00;86000.34;5133626;27;20227;-57
2023/07/12 04:08:56;;;;;;;13.27;12.88;;;;;;;-141.02;100.00;85502.66;5134000;27;20192;-57
2023/07/12 04:11:29;;;;;;;13.82;13.32;;;;;;;-141.02;100.00;83761.31;5133696;27;20231;-58
2023/07/12 04:13:59;;;;;;;14.75;14.15;;;;;;;-141.02;100.00;80778.25;5133688;27;20185;-58
2023/07/12 04:16:26;;;;;;;15.57;14.93;;;;;;;-141.02;100.00;81275.25;5134115;27;20245;-59
2023/07/12 04:18:53;;;;;;;17.00;16.20;;;;;;;-141.02;100.00;77797.72;5133808;27;20283;-61
2023/07/12 04:21:21;;;;;;;17.45;16.55;;;;;;;-141.02;100.00;75564.03;5133574;27;20224;-57
2023/07/12 04:23:48;;;;;;;18.00;17.10;;;;;;;-141.02;92.42;74571.75;5133757;27;20234;-66
2023/07/12 04:26:17;;;;;;;17.92;16.92;;;;;;;-141.02;92.68;74323.72;5133605;27;20253;-61
2023/07/12 04:28:48;;;;;;;18.92;17.92;;;;;;;-141.02;90.64;73827.72;5133535;27;20196;-60
2023/07/12 04:31:19;;;;;;;19.38;18.27;;;;;;;-141.02;88.45;73331.81;5133600;27;20216;-59
2023/07/12 04:33:46;;;;;;;19.48;18.38;;;;;;;-141.02;87.94;72835.97;5133581;27;20258;-59
2023/07/12 04:36:16;;;;;;;19.58;18.48;;;;;;;-141.02;83.27;73331.81;5133823;27;20297;-59
2023/07/12 04:38:43;;;;;;;20.15;18.95;;;;;;;-141.02;82.79;72835.97;5133390;27;20195;-59
2023/07/12 04:41:10;;;;;;;20.27;19.08;;;;;;;-141.02;80.91;71348.81;5133090;27;20188;-58
2023/07/12 04:43:37;;;;;;;21.98;20.58;;;;;;;-141.02;81.03;72340.16;5133119;27;20231;-58
2023/07/12 04:46:04;;;;;;;21.52;20.13;;;;;;;-141.02;82.60;72092.31;5132843;27;20318;-66
2023/07/12 04:48:33;;;;;;;22.25;20.85;;;;;;;-141.02;82.46;71596.63;5133161;27;20258;-59
2023/07/12 04:51:03;;;;;;;22.77;21.33;;;;;;;-141.02;78.66;71844.47;5133246;27;20279;-58
2023/07/12 04:53:30;;;;;;;22.55;21.05;;;;;;;-141.02;76.20;72092.31;5133339;27;20245;-58
2023/07/12 04:55:57;;;;;;;21.95;20.55;;;;;;;-141.02;75.24;73579.75;5133310;27;20199;-60
2023/07/12 04:58:24;;;;;;;22.70;21.20;;;;;;;-141.02;69.95;71844.47;5132874;27;20253;-60
2023/07/12 05:00:51;;;;;;;22.60;21.10;;;;;;;-141.02;68.79;71596.63;5132886;28;20597;-61
2023/07/12 05:03:18;;;;;;;23.42;21.90;;;;;;;-141.02;72.43;71348.81;5132882;28;20228;-66
2023/07/12 05:05:46;;;;;;;23.33;21.73;;;;;;;-141.02;69.21;71348.81;5133286;28;20200;-66
2023/07/12 05:08:15;;;;;;;23.05;21.55;;;;;;;-141.02;68.97;71101.03;5132967;28;20302;-59
2023/07/12 05:10:42;;;;;;;22.98;21.48;;;;;;;-141.02;69.68;71348.81;5133033;28;20201;-60
2023/07/12 05:13:09;;;;;;;23.23;21.73;;;;;;;-141.02;67.84;71348.81;5132779;28;20284;-62
2023/07/12 05:15:36;;;;;;;23.67;22.08;;;;;;;-141.02;71.25;70357.75;5133828;28;20222;-58
2023/07/12 05:18:03;;;;;;;23.35;21.85;;;;;;;-141.02;72.92;70110.03;5133291;28;20213;-57
2023/07/12 05:20:30;;;;;;;23.30;21.80;;;;;;;-141.02;73.46;69366.97;5132750;28;20197;-65
2023/07/12 05:22:59;;;;;;;23.85;22.35;;;;;;;-141.02;75.35;69119.34;5132957;28;20202;-58
2023/07/12 05:25:26;;;;;;;23.25;21.75;;;;;;;-141.02;76.56;69119.34;5132945;28;20277;-65
2023/07/12 05:27:52;;;;;;;22.50;21.00;;;;;;;-141.02;76.34;69366.97;5132874;28;20318;-61
2023/07/12 05:30:20;;;;;;;23.00;21.50;;;;;;;-141.02;76.74;68871.72;5132930;28;20283;-65
2023/07/12 05:32:47;;;;;;;22.77;21.38;;;;;;;-141.02;80.62;68376.50;5132831;27;20204;-58
2023/07/12 05:35:14;;;;;;;23.52;22.10;;;;;;;-141.02;81.09;67633.81;5136865;27;20196;-58
2023/07/12 05:37:41;;;;;;;22.65;21.35;;;;;;;-141.02;83.47;68376.50;5136609;27;20193;-59
2023/07/12 05:40:10;;;;;;;22.23;20.92;;;;;;;-141.02;83.62;67386.28;5136595;27;20228;-62
2023/07/12 05:42:40;;;;;;;22.30;20.90;;;;;;;-141.02;83.47;66643.84;5136824;27;20196;-58
2023/07/12 05:45:08;;;;;;;22.52;21.23;;;;;;;-141.02;83.79;67881.38;5136815;27;20284;-64
2023/07/12 05:47:36;;;;;;;23.27;21.98;;;;;;;-141.02;83.98;67386.28;5136327;27;20319;-64
2023/07/12 05:50:03;;;;;;;22.60;21.30;;;;;;;-141.02;84.23;67633.81;5136343;27;20197;-64
2023/07/12 05:52:30;;;;;;;22.17;20.88;;;;;;;-141.02;84.40;67386.28;5136307;27;20279;-58
2023/07/12 05:54:57;;;;;;;19.60;18.60;;;;;;;-141.02;86.92;67386.28;5136781;27;20283;-62
2023/07/12 05:57:25;;;;;;;19.52;18.45;;;;;;;-141.02;85.24;67138.78;5136634;27;20298;-62
2023/07/12 05:59:52;;;;;;;20.23;19.13;;;;;;;-141.02;86.17;67138.78;5136562;27;20192;-57
2023/07/12 06:02:19;;;;;;;19.92;18.83;;;;;;;-141.02;90.91;67881.38;5136121;27;20647;-64
2023/07/12 06:04:46;;;;;;;19.58;18.52;;;;;;;-141.02;93.70;68376.50;5136152;27;20699;-57
2023/07/12 06:07:13;;;;;;;19.58;18.48;;;;;;;-141.02;91.82;68871.72;5136292;27;20262;-61
2023/07/12 06:09:40;;;;;;;19.52;18.52;;;;;;;-141.02;92.96;69862.34;5136902;27;20283;-63
2023/07/12 06:12:08;;;;;;;19.42;18.40;;;;;;;-141.02;89.94;68871.72;5136133;27;20304;-64
2023/07/12 06:14:36;;;;;;;19.73;18.63;;;;;;;-141.02;89.38;69366.97;5135918;27;20190;-58
2023/07/12 06:17:03;;;;;;;19.65;18.55;;;;;;;-141.02;86.49;69862.34;5135899;27;20218;-59
2023/07/12 06:19:30;;;;;;;19.85;18.75;;;;;;;-141.02;88.84;69862.34;5135821;27;20353;-63
2023/07/12 06:21:58;;;;;;;19.55;18.45;;;;;;;-141.02;87.14;71348.81;5136128;27;20373;-63
2023/07/12 06:24:25;;;;;;;19.67;18.58;;;;;;;-141.02;86.52;71101.03;5135667;27;20196;-61
2023/07/12 06:26:52;;;;;;;19.77;18.67;;;;;;;-141.02;84.14;70853.25;5135832;27;20255;-58
2023/07/12 06:29:19;;;;;;;20.25;19.15;;;;;;;-141.02;83.82;72092.31;5135683;27;20189;-61
2023/07/12 06:31:47;;;;;;;21.15;19.95;;;;;;;-141.02;78.33;70357.75;5135858;27;20279;-59
2023/07/12 06:34:14;;;;;;;21.30;20.10;;;;;;;-141.02;77.44;69862.34;5135809;27;20242;-62
2023/07/12 06:36:41;;;;;;;20.85;19.65;;;;;;;-141.02;79.14;67633.81;5135474;27;20283;-63
2023/07/12 06:39:09;;;;;;;20.65;19.55;;;;;;;-141.02;82.01;68376.50;5135812;27;20279;-60
2023/07/12 06:41:36;;;;;;;20.38;19.27;;;;;;;-141.02;81.58;68624.09;5135449;27;20192;-63
2023/07/12 06:44:03;;;;;;;20.60;19.40;;;;;;;-141.02;80.31;67881.38;5135513;27;20202;-58
2023/07/12 06:46:30;;;;;;;20.02;18.92;;;;;;;-141.02;82.16;66891.31;5135546;27;20193;-59
2023/07/12 06:48:58;;;;;;;19.33;18.23;;;;;;;-141.02;85.75;67881.38;5135284;27;20193;-66
2023/07/12 06:51:25;;;;;;;19.25;18.15;;;;;;;-141.02;86.70;69366.97;5135554;27;20246;-66
2023/07/12 06:53:53;;;;;;;19.95;18.85;;;;;;;-141.02;83.59;69862.34;5135453;27;20199;-66
2023/07/12 06:56:19;;;;;;;19.85;18.77;;;;;;;-141.02;82.90;70110.03;5135254;27;20288;-61
2023/07/12 06:58:46;;;;;;;22.23;20.92;;;;;;;-141.02;81.79;70110.03;5135131;27;20210;-67
2023/07/12 07:01:14;;;;;;;20.58;19.48;;;;;;;-141.02;80.36;68871.72;5134957;27;20671;-64
2023/07/12 07:03:41;;;;;;;19.50;18.45;;;;;;;-141.02;82.77;69614.66;5135280;27;20192;-63
2023/07/12 07:06:09;;;;;;;20.38;19.27;;;;;;;-141.02;82.94;69119.34;5135563;27;20193;-67
2023/07/12 07:08:36;;;;;;;19.27;18.17;;;;;;;-141.02;83.69;70605.50;5134856;27;20229;-62
2023/07/12 07:11:03;;;;;;;20.48;19.38;;;;;;;-141.02;78.77;69614.66;5134572;27;20328;-64
2023/07/12 07:13:30;;;;;;;20.55;19.45;;;;;;;-141.02;80.17;70110.03;5135111;27;20195;-63
2023/07/12 07:15:58;;;;;;;20.85;19.65;;;;;;;-141.02;77.21;70357.75;5135091;27;20224;-58
2023/07/12 07:18:25;;;;;;;20.75;19.58;;;;;;;-141.02;77.85;71596.63;5134844;27;20801;-60
2023/07/12 07:20:52;;;;;;;21.02;19.73;;;;;;;-141.02;75.03;71596.63;5134730;27;20204;-61
2023/07/12 07:23:21;;;;;;;21.40;20.20;;;;;;;-141.02;74.74;71596.63;5134943;27;20189;-61
2023/07/12 07:25:48;;;;;;;21.25;20.05;;;;;;;-141.02;74.78;71348.81;5134776;27;20291;-57
2023/07/12 07:28:15;;;;;;;21.50;20.30;;;;;;;-141.02;74.39;72092.31;5134805;27;20320;-62
2023/07/12 07:30:42;;;;;;;22.50;21.20;;;;;;;-141.02;72.74;71844.47;5134460;27;20678;-63
2023/07/12 07:33:10;;;;;;;21.42;20.23;;;;;;;-141.02;74.08;73579.75;5134742;27;20192;-64
2023/07/12 07:35:38;;;;;;;21.95;20.65;;;;;;;-141.02;72.03;72092.31;5134607;27;20275;-59
2023/07/12 07:38:05;;;;;;;22.60;21.30;;;;;;;-141.02;70.73;72340.16;5134601;27;20276;-60
2023/07/12 07:40:33;;;;;;;22.08;20.77;;;;;;;-141.02;73.04;75067.88;5134527;27;20209;-60
2023/07/12 07:43:00;;;;;;;21.80;20.52;;;;;;;-141.02;68.41;74819.81;5134463;27;20291;-61
2023/07/12 07:45:27;;;;;;;22.73;21.42;;;;;;;-141.02;66.96;72588.06;5134440;27;20291;-60
2023/07/12 07:47:54;;;;;;;22.63;21.33;;;;;;;-141.02;67.40;70853.25;5133955;27;20323;-62
2023/07/12 07:50:21;;;;;;;22.42;21.13;;;;;;;-141.02;68.35;72340.16;5134403;27;20192;-60
2023/07/12 07:52:48;;;;;;;22.73;21.42;;;;;;;-141.02;63.39;72092.31;5134007;27;20195;-65
2023/07/12 07:55:15;;;;;;;22.85;21.55;;;;;;;-141.02;64.37;73579.75;5134570;27;20192;-62
2023/07/12 07:57:44;;;;;;;23.20;21.80;;;;;;;-141.02;63.52;71596.63;5133838;27;20192;-61
2023/07/12 08:00:13;;;;;;;23.00;21.70;;;;;;;-141.02;65.49;71348.81;5134244;27;20193;-66
2023/07/12 08:02:42;;;;;;;22.60;21.30;;;;;;;-141.02;64.48;71348.81;5134217;27;20283;-65
2023/07/12 08:05:09;;;;;;;22.75;21.45;;;;;;;-141.02;63.57;72588.06;5134111;27;20196;-58
2023/07/12 08:07:41;;;;;;;22.95;21.65;;;;;;;-141.02;61.45;71596.63;5133659;27;20323;-63
2023/07/12 08:10:15;;;;;;;23.70;22.40;;;;;;;-141.02;64.23;72588.06;5134134;27;20279;-66
2023/07/12 08:12:44;;;;;;;23.25;21.95;;;;;;;-141.02;61.99;70853.25;5133677;27;20658;-60
2023/07/12 08:15:12;;;;;;;23.80;22.45;;;;;;;-141.02;62.14;70357.75;5133898;27;20275;-61
2023/07/12 08:17:39;;;;;;;23.35;22.05;;;;;;;-141.02;64.43;72092.31;5133915;27;20280;-64
2023/07/12 08:20:08;;;;;;;23.25;21.95;;;;;;;-141.02;63.88;72835.97;5133878;27;20297;-68
2023/07/12 08:22:35;;;;;;;23.33;22.02;;;;;;;-141.02;64.91;72835.97;5133815;27;20294;-65
2023/07/12 08:25:02;;;;;;;23.95;22.55;;;;;;;-141.02;66.07;71101.03;5134084;27;20196;-64
2023/07/12 08:27:30;;;;;;;23.13;21.83;;;;;;;-141.02;66.33;73083.88;5133541;27;20224;-58
2023/07/12 08:29:59;;;;;;;23.10;21.80;;;;;;;-141.02;64.66;74075.72;5133656;27;20197;-58
2023/07/12 08:32:27;;;;;;;23.65;22.35;;;;;;;-141.02;63.31;74323.72;5133690;27;20200;-62
2023/07/12 08:34:55;;;;;;;23.88;22.48;;;;;;;-141.02;60.91;72588.06;5133244;27;20709;-61
2023/07/12 08:37:23;;;;;;;23.50;22.13;;;;;;;-141.02;63.47;73827.72;5133351;27;20200;-65
2023/07/12 08:39:50;;;;;;;23.27;21.98;;;;;;;-141.02;63.11;72835.97;5133118;27;20733;-60
2023/07/12 08:42:21;;;;;;;23.52;22.13;;;;;;;-141.02;63.91;73579.75;5133467;27;20277;-59
2023/07/12 08:44:48;;;;;;;23.60;22.20;;;;;;;-141.02;62.37;72340.16;5133530;27;20191;-58
2023/07/12 08:47:19;;;;;;;23.35;22.05;;;;;;;-141.02;63.13;71844.47;5133296;27;20232;-58
2023/07/12 08:49:46;;;;;;;22.95;21.65;;;;;;;-141.02;62.94;72092.31;5133141;27;20271;-60
2023/07/12 08:52:19;;;;;;;22.77;21.48;;;;;;;-141.02;64.20;72092.31;5133495;27;20235;-66
2023/07/12 08:54:48;;;;;;;23.00;21.70;;;;;;;-141.02;63.58;71348.81;5133067;27;20184;-62
2023/07/12 08:57:17;;;;;;;22.58;21.27;;;;;;;-141.02;63.27;72835.97;5132977;27;20554;-59
2023/07/12 08:59:48;;;;;;;23.02;21.65;;;;;;;-141.02;62.73;72588.06;5132968;27;20287;-58
2023/07/12 09:02:23;;;;;;;22.83;21.52;;;;;;;-141.02;63.93;74571.75;5133211;28;20271;-58
2023/07/12 09:04:51;;;;;;;23.30;21.90;;;;;;;-141.02;61.22;72835.97;5132897;27;20252;-66
2023/07/12 09:07:28;;;;;;;23.15;21.75;;;;;;;-141.02;60.97;73083.88;5133021;27;20192;-63
2023/07/12 09:09:57;;;;;;;23.17;21.88;;;;;;;-141.02;60.81;70110.03;5136778;27;20249;-67
2023/07/12 09:12:27;;;;;;;24.70;23.13;;;;;;;-141.02;65.82;73083.88;5136945;27;20234;-59
2023/07/12 09:14:57;;;;;;;24.95;23.25;;;;;;;-141.02;64.16;73083.88;5137321;27;20669;-61
2023/07/12 09:17:28;;;;;;;23.23;21.83;;;;;;;-141.02;62.93;73827.72;5136931;27;20202;-60
2023/07/12 09:19:55;;;;;;;22.58;21.27;;;;;;;-141.02;61.89;74075.72;5137305;27;20256;-59
2023/07/12 09:22:23;;;;;;;23.83;22.25;;;;;;;-141.02;59.54;72835.97;5137331;27;20242;-64
2023/07/12 09:24:55;;;;;;;23.20;21.80;;;;;;;-141.02;60.20;73331.81;5136919;27;20204;-62
2023/07/12 09:27:25;;;;;;;23.58;22.17;;;;;;;-141.02;58.41;71844.47;5137074;27;20295;-60
2023/07/12 09:30:00;;;;;;;23.55;22.10;;;;;;;-141.02;58.26;74323.72;5136695;27;20578;-61
2023/07/12 09:32:33;;;;;;;22.83;21.42;;;;;;;-141.02;57.51;75067.88;5136595;27;20658;-59
2023/07/12 09:35:00;;;;;;;22.73;21.33;;;;;;;-141.02;58.92;74571.75;5137031;27;20227;-60
2023/07/12 09:37:28;;;;;;;22.75;21.35;;;;;;;-141.02;59.22;73083.88;5136963;27;20271;-60
2023/07/12 09:39:56;;;;;;;22.63;21.23;;;;;;;-141.02;56.07;71844.47;5136662;27;20232;-59
2023/07/12 09:42:24;;;;;;;22.40;21.00;;;;;;;-141.02;60.21;70605.50;5136550;27;20228;-60
2023/07/12 09:44:52;;;;;;;22.80;21.40;;;;;;;-141.02;58.68;71101.03;5136596;27;20193;-61
2023/07/12 09:47:40;;;;;;;22.88;21.48;;;;;;;-141.02;59.43;72092.31;5136913;27;20289;-63
2023/07/12 09:50:14;;;;;;;22.58;21.17;;;;;;;-141.02;58.45;71101.03;5136363;27;20181;-61
2023/07/12 09:52:59;;;;;;;24.05;22.35;;;;;;;-141.02;58.22;72092.31;5136740;27;20267;-59
2023/07/12 09:55:35;;;;;;;23.90;22.20;;;;;;;-141.02;55.74;72092.31;5136566;27;20192;-63
2023/07/12 09:58:16;;;;;;;22.20;20.70;;;;;;;-141.02;59.46;75564.03;5136221;27;20203;-63
2023/07/12 10:00:56;;;;;;;22.60;21.10;;;;;;;-141.02;57.58;75315.94;5136509;27;20191;-59
2023/07/12 10:03:29;;;;;;;23.90;22.13;;;;;;;-141.02;54.88;74819.81;5136490;27;20241;-66
2023/07/12 10:05:59;;;;;;;22.15;20.65;;;;;;;-141.02;56.24;75315.94;5136483;27;20185;-62
2023/07/12 10:08:34;;;;;;;22.40;20.90;;;;;;;-141.02;56.33;71348.81;5136676;27;20231;-61
2023/07/12 10:11:10;;;;;;;21.75;20.25;;;;;;;-141.02;58.11;72340.16;5136041;27;20650;-64
2023/07/12 10:13:41;;;;;;;21.85;20.40;;;;;;;-141.02;56.21;69862.34;5136307;27;20275;-61
2023/07/12 10:16:14;;;;;;;22.05;20.55;;;;;;;-141.02;57.75;71596.63;5135884;27;20203;-65
2023/07/12 10:18:45;;;;;;;22.17;20.67;;;;;;;-141.02;56.56;71844.47;5135996;27;20267;-63
2023/07/12 10:21:18;;;;;;;22.05;20.65;;;;;;;-141.02;56.64;71596.63;5135890;27;20218;-59
2023/07/12 10:23:51;;;;;;;22.52;21.13;;;;;;;-141.02;54.49;71596.63;5135702;27;20196;-59
2023/07/12 10:26:18;;;;;;;23.52;21.95;;;;;;;-141.02;57.46;74075.72;5135744;27;20242;-63
2023/07/12 10:28:51;;;;;;;23.08;21.58;;;;;;;-141.02;54.87;73331.81;5135737;27;20266;-58
2023/07/12 10:31:28;;;;;;;22.65;21.17;;;;;;;-141.02;55.23;74323.72;5135876;27;20181;-58
2023/07/12 10:34:26;;;;;;;23.00;21.50;;;;;;;-141.02;56.73;72340.16;5135787;27;20184;-61
2023/07/12 10:36:57;;;;;;;23.25;21.75;;;;;;;-141.02;55.34;72092.31;5135433;27;20224;-61
2023/07/12 10:39:25;;;;;;;23.10;21.60;;;;;;;-141.02;56.38;69862.34;5135608;27;20725;-60
2023/07/12 10:41:58;;;;;;;22.33;20.92;;;;;;;-141.02;56.51;70853.25;5135229;27;20279;-58
2023/07/12 10:44:30;;;;;;;22.17;20.77;;;;;;;-141.02;55.41;73331.81;5135481;27;20184;-62
2023/07/12 10:47:01;;;;;;;22.80;21.30;;;;;;;-141.02;53.82;72835.97;5135424;27;20220;-61
2023/07/12 10:49:47;;;;;;;23.17;21.67;;;;;;;-141.02;58.30;76556.59;5135327;27;20218;-59
2023/07/12 10:52:20;;;;;;;22.73;21.25;;;;;;;-141.02;52.59;71844.47;5135123;27;20181;-61
2023/07/12 10:55:08;;;;;;;23.08;21.48;;;;;;;-141.02;54.55;72835.97;5135356;27;20281;-64
2023/07/12 10:57:40;;;;;;;22.80;21.30;;;;;;;-141.02;54.53;73331.81;5135301;27;20238;-59
2023/07/12 11:00:23;;;;;;;22.33;20.83;;;;;;;-141.02;52.75;71348.81;5135280;27;20204;-60
2023/07/12 11:03:03;;;;;;;22.92;21.42;;;;;;;-141.02;55.58;72092.31;5135383;27;20237;-58
2023/07/12 11:05:44;;;;;;;22.50;21.00;;;;;;;-141.02;55.62;74571.75;5135124;27;20223;-61
2023/07/12 11:08:38;;;;;;;22.92;21.42;;;;;;;-141.02;54.41;71596.63;5135066;27;20209;-65
2023/07/12 11:11:31;;;;;;;22.50;21.00;;;;;;;-141.02;54.10;72340.16;5134758;27;20270;-60
2023/07/12 11:14:14;;;;;;;22.83;21.33;;;;;;;-141.02;55.60;74571.75;5134637;27;20211;-60